Time,TemperatureF,DewpointF,PressureIn,WindDirection,WindDirectionDegrees,WindSpeedMPH,WindSpeedGustMPH,Humidity,HourlyPrecipIn,Conditions,Clouds,dailyrainin,SoftwareType,DateUTC
2013-10-14 00:02:00,31.4,29.0,29.80,SSE,153,0.0,1.0,92,0.00,,,0.00,weatherlink.com 1.10,2013-10-14 06:02:00,
2013-10-14 00:17:00,31.5,30.0,29.78,SSE,149,0.0,1.0,93,0.00,,,0.00,weatherlink.com 1.10,2013-10-14 06:17:00,
2013-10-14 00:32:00,31.1,29.0,29.78,SSE,155,0.0,2.0,93,0.00,,,0.00,weatherlink.com 1.10,2013-10-14 06:32:00,
2013-10-14 00:47:00,32.0,31.0,29.77,SSE,149,1.0,2.0,94,0.00,,,0.00,weatherlink.com 1.10,2013-10-14 06:47:00,
2013-10-14 01:02:00,33.1,31.0,29.77,South,170,0.0,3.0,92,0.00,,,0.00,weatherlink.com 1.10,2013-10-14 07:02:00,
2013-10-14 01:17:00,33.2,31.0,29.76,SE,146,0.0,3.0,91,0.00,,,0.00,weatherlink.com 1.10,2013-10-14 07:17:00,
2013-10-14 01:32:00,33.6,31.0,29.75,SE,145,0.0,2.0,89,0.00,,,0.00,weatherlink.com 1.10,2013-10-14 07:32:00,
2013-10-14 01:47:00,33.5,30.0,29.75,SSE,148,0.0,2.0,88,0.00,,,0.00,weatherlink.com 1.10,2013-10-14 07:47:00,
2013-10-14 02:02:00,33.7,30.0,29.75,SE,138,1.0,3.0,87,0.00,,,0.00,weatherlink.com 1.10,2013-10-14 08:02:00,
2013-10-14 02:17:00,33.4,30.0,29.74,SSE,148,0.0,2.0,87,0.00,,,0.00,weatherlink.com 1.10,2013-10-14 08:17:00,
2013-10-14 02:32:00,32.2,29.0,29.74,SSE,148,0.0,2.0,89,0.00,,,0.00,weatherlink.com 1.10,2013-10-14 08:32:00,
2013-10-14 02:47:00,31.3,29.0,29.74,SSE,149,0.0,2.0,89,0.00,,,0.00,weatherlink.com 1.10,2013-10-14 08:47:00,
2013-10-14 03:02:00,30.2,28.0,29.73,SSE,149,0.0,3.0,91,0.00,,,0.00,weatherlink.com 1.10,2013-10-14 09:02:00,
2013-10-14 03:17:00,29.4,27.0,29.73,SSE,149,0.0,1.0,91,0.00,,,0.00,weatherlink.com 1.10,2013-10-14 09:17:00,
2013-10-14 03:32:00,29.1,27.0,29.73,SSE,149,0.0,0.0,92,0.00,,,0.00,weatherlink.com 1.10,2013-10-14 09:32:00,
2013-10-14 03:47:00,29.8,28.0,29.73,SSE,149,0.0,2.0,93,0.00,,,0.00,weatherlink.com 1.10,2013-10-14 09:47:00,
2013-10-14 04:02:00,30.4,29.0,29.74,SSE,160,0.0,0.0,93,0.00,,,0.00,weatherlink.com 1.10,2013-10-14 10:02:00,
2013-10-14 04:17:00,30.7,29.0,29.73,SSE,160,0.0,1.0,93,0.00,,,0.00,weatherlink.com 1.10,2013-10-14 10:17:00,
2013-10-14 04:33:00,30.4,29.0,29.71,SSE,160,0.0,1.0,93,0.00,,,0.00,weatherlink.com 1.10,2013-10-14 10:33:00,
2013-10-14 04:48:00,29.8,28.0,29.70,SSE,160,0.0,1.0,93,0.00,,,0.00,weatherlink.com 1.10,2013-10-14 10:48:00,
2013-10-14 05:03:00,29.3,28.0,29.69,SSE,160,0.0,1.0,93,0.00,,,0.00,weatherlink.com 1.10,2013-10-14 11:03:00,
2013-10-14 05:18:00,28.7,27.0,29.68,SSE,161,0.0,1.0,93,0.00,,,0.00,weatherlink.com 1.10,2013-10-14 11:18:00,
2013-10-14 05:33:00,28.1,26.0,29.69,SSE,161,0.0,1.0,93,0.00,,,0.00,weatherlink.com 1.10,2013-10-14 11:33:00,
2013-10-14 05:48:00,27.8,26.0,29.69,SSE,160,0.0,1.0,93,0.00,,,0.00,weatherlink.com 1.10,2013-10-14 11:48:00,
2013-10-14 06:03:00,27.6,26.0,29.69,SSE,160,0.0,1.0,93,0.00,,,0.00,weatherlink.com 1.10,2013-10-14 12:03:00,
2013-10-14 06:18:00,27.8,26.0,29.70,SSE,150,0.0,2.0,93,0.00,,,0.00,weatherlink.com 1.10,2013-10-14 12:18:00,
2013-10-14 06:33:00,28.3,27.0,29.72,SE,131,0.0,1.0,93,0.00,,,0.00,weatherlink.com 1.10,2013-10-14 12:33:00,
2013-10-14 06:48:00,28.8,27.0,29.73,SSE,159,0.0,1.0,93,0.00,,,0.00,weatherlink.com 1.10,2013-10-14 12:48:00,
2013-10-14 07:03:00,28.6,27.0,29.73,SSW,195,0.0,3.0,92,0.00,,,0.00,weatherlink.com 1.10,2013-10-14 13:03:00,
2013-10-14 07:18:00,28.3,26.0,29.72,ESE,113,4.0,4.0,90,0.00,,,0.00,weatherlink.com 1.10,2013-10-14 13:18:00,
2013-10-14 07:33:00,28.3,24.0,29.73,East,91,2.0,3.0,85,0.00,,,0.00,weatherlink.com 1.10,2013-10-14 13:33:00,
2013-10-14 07:48:00,28.6,24.0,29.74,SSW,203,2.0,2.0,84,0.00,,,0.00,weatherlink.com 1.10,2013-10-14 13:48:00,
2013-10-14 08:03:00,28.6,24.0,29.74,SSE,152,0.0,2.0,82,0.00,,,0.00,weatherlink.com 1.10,2013-10-14 14:03:00,
2013-10-14 08:18:00,28.8,25.0,29.74,South,176,0.0,3.0,84,0.00,,,0.00,weatherlink.com 1.10,2013-10-14 14:18:00,
2013-10-14 08:33:00,29.0,25.0,29.75,SSE,153,0.0,2.0,86,0.00,,,0.00,weatherlink.com 1.10,2013-10-14 14:33:00,
2013-10-14 08:48:00,28.9,26.0,29.75,South,174,0.0,1.0,89,0.00,,,0.00,weatherlink.com 1.10,2013-10-14 14:48:00,
2013-10-14 09:03:00,28.9,26.0,29.75,SE,146,0.0,2.0,87,0.00,,,0.00,weatherlink.com 1.10,2013-10-14 15:03:00,
2013-10-14 09:18:00,29.2,25.0,29.75,SSE,150,1.0,2.0,85,0.00,,,0.00,weatherlink.com 1.10,2013-10-14 15:18:00,
2013-10-14 09:33:00,29.7,25.0,29.75,SSE,155,1.0,5.0,81,0.00,,,0.00,weatherlink.com 1.10,2013-10-14 15:33:00,
2013-10-14 09:48:00,30.1,25.0,29.75,SSE,153,0.0,9.0,82,0.00,,,0.00,weatherlink.com 1.10,2013-10-14 15:48:00,
2013-10-14 10:03:00,30.7,26.0,29.74,South,174,0.0,1.0,82,0.00,,,0.00,weatherlink.com 1.10,2013-10-14 16:03:00,
2013-10-14 10:18:00,30.9,26.0,29.73,SE,137,2.0,3.0,81,0.00,,,0.00,weatherlink.com 1.10,2013-10-14 16:18:00,
2013-10-14 10:33:00,31.2,24.0,29.73,SSE,155,0.0,6.0,76,0.00,,,0.00,weatherlink.com 1.10,2013-10-14 16:33:00,
2013-10-14 10:48:00,31.1,25.0,29.74,South,169,0.0,5.0,77,0.00,,,0.00,weatherlink.com 1.10,2013-10-14 16:48:00,
2013-10-14 11:03:00,30.9,24.0,29.75,South,173,1.0,4.0,76,0.00,,,0.00,weatherlink.com 1.10,2013-10-14 17:03:00,
2013-10-14 11:18:00,32.7,24.0,29.75,South,169,1.0,5.0,71,0.00,,,0.00,weatherlink.com 1.10,2013-10-14 17:18:00,
2013-10-14 11:33:00,33.9,25.0,29.75,SSE,160,0.0,5.0,71,0.00,,,0.00,weatherlink.com 1.10,2013-10-14 17:33:00,
2013-10-14 11:48:00,34.2,24.0,29.76,SE,137,2.0,6.0,66,0.00,,,0.00,weatherlink.com 1.10,2013-10-14 17:48:00,
2013-10-14 12:03:00,34.8,25.0,29.76,SSE,156,0.0,8.0,67,0.00,,,0.00,weatherlink.com 1.10,2013-10-14 18:03:00,
2013-10-14 12:18:00,35.1,26.0,29.77,SSW,201,1.0,7.0,69,0.00,,,0.00,weatherlink.com 1.10,2013-10-14 18:18:00,
2013-10-14 12:33:00,34.2,28.0,29.77,South,169,0.0,5.0,79,0.00,,,0.00,weatherlink.com 1.10,2013-10-14 18:33:00,
2013-10-14 12:48:00,35.2,26.0,29.77,SSE,151,0.0,7.0,70,0.00,,,0.00,weatherlink.com 1.10,2013-10-14 18:48:00,
2013-10-14 13:03:00,35.5,26.0,29.78,SSE,167,1.0,5.0,69,0.00,,,0.00,weatherlink.com 1.10,2013-10-14 19:03:00,
2013-10-14 13:18:00,35.7,27.0,29.79,South,191,2.0,5.0,70,0.00,,,0.00,weatherlink.com 1.10,2013-10-14 19:18:00,
2013-10-14 13:33:00,34.1,29.0,29.79,SE,139,2.0,7.0,80,0.00,,,0.00,weatherlink.com 1.10,2013-10-14 19:33:00,
2013-10-14 13:48:00,33.5,29.0,29.79,South,173,0.0,-999.0,82,-99.99,,,0.00,weatherlink.com 1.10,2013-10-14 19:48:00,
2013-10-14 14:03:00,33.9,27.0,29.79,South,170,1.0,7.0,77,0.00,,,0.00,weatherlink.com 1.10,2013-10-14 20:03:00,
2013-10-14 14:18:00,34.9,26.0,29.79,SSE,165,0.0,6.0,71,0.00,,,0.00,weatherlink.com 1.10,2013-10-14 20:18:00,
2013-10-14 14:33:00,35.4,26.0,29.80,SSE,166,2.0,9.0,68,0.00,,,0.00,weatherlink.com 1.10,2013-10-14 20:33:00,
2013-10-14 14:48:00,35.6,24.0,29.81,SSW,194,2.0,13.0,63,0.00,,,0.00,weatherlink.com 1.10,2013-10-14 20:48:00,
2013-10-14 15:03:00,35.6,25.0,29.82,SSE,150,1.0,6.0,65,0.00,,,0.00,weatherlink.com 1.10,2013-10-14 21:03:00,
2013-10-14 15:18:00,33.8,27.0,29.84,SSE,160,1.0,6.0,76,0.01,,,0.01,weatherlink.com 1.10,2013-10-14 21:18:00,
2013-10-14 15:33:00,31.2,27.0,29.86,SE,131,2.0,5.0,85,0.01,,,0.01,weatherlink.com 1.10,2013-10-14 21:33:00,
2013-10-14 15:49:00,30.3,27.0,29.86,South,169,0.0,4.0,88,0.01,,,0.01,weatherlink.com 1.10,2013-10-14 21:49:00,
2013-10-14 16:04:00,29.8,26.0,29.87,SSE,158,1.0,7.0,87,0.01,,,0.01,weatherlink.com 1.10,2013-10-14 22:04:00,
2013-10-14 16:19:00,29.8,26.0,29.88,SE,127,2.0,9.0,87,0.00,,,0.01,weatherlink.com 1.10,2013-10-14 22:19:00,
2013-10-14 16:34:00,29.8,26.0,29.89,SSE,151,1.0,3.0,86,0.00,,,0.01,weatherlink.com 1.10,2013-10-14 22:34:00,
2013-10-14 16:49:00,29.2,26.0,29.90,South,174,1.0,7.0,87,0.00,,,0.01,weatherlink.com 1.10,2013-10-14 22:49:00,
2013-10-14 17:04:00,28.8,25.0,29.91,South,175,0.0,4.0,87,0.00,,,0.01,weatherlink.com 1.10,2013-10-14 23:04:00,
2013-10-14 17:19:00,28.4,26.0,29.91,SSE,167,0.0,4.0,89,0.00,,,0.01,weatherlink.com 1.10,2013-10-14 23:19:00,
2013-10-14 17:34:00,27.9,25.0,29.93,SE,146,0.0,7.0,90,0.00,,,0.01,weatherlink.com 1.10,2013-10-14 23:34:00,
2013-10-14 17:49:00,27.6,25.0,29.94,South,181,1.0,3.0,91,0.00,,,0.01,weatherlink.com 1.10,2013-10-14 23:49:00,
2013-10-14 18:04:00,27.4,25.0,29.94,SSE,162,3.0,3.0,92,0.00,,,0.01,weatherlink.com 1.10,2013-10-15 00:04:00,
2013-10-14 18:19:00,27.4,25.0,29.95,SSE,166,0.0,4.0,92,0.00,,,0.01,weatherlink.com 1.10,2013-10-15 00:19:00,
2013-10-14 18:34:00,27.3,25.0,29.96,SSE,152,1.0,4.0,92,0.00,,,0.01,weatherlink.com 1.10,2013-10-15 00:34:00,
2013-10-14 18:49:00,27.3,25.0,29.97,SSE,165,0.0,4.0,92,0.00,,,0.01,weatherlink.com 1.10,2013-10-15 00:49:00,
2013-10-14 19:04:00,27.1,25.0,29.98,South,180,0.0,3.0,92,0.00,,,0.01,weatherlink.com 1.10,2013-10-15 01:04:00,
2013-10-14 19:19:00,27.0,25.0,29.98,SSE,153,0.0,3.0,92,0.00,,,0.01,weatherlink.com 1.10,2013-10-15 01:19:00,
2013-10-14 19:34:00,27.0,25.0,30.00,SE,142,0.0,5.0,92,0.00,,,0.01,weatherlink.com 1.10,2013-10-15 01:34:00,
2013-10-14 19:49:00,26.8,25.0,30.01,SSE,149,0.0,3.0,92,0.00,,,0.01,weatherlink.com 1.10,2013-10-15 01:49:00,
2013-10-14 20:04:00,26.8,25.0,30.02,South,181,0.0,2.0,92,0.00,,,0.01,weatherlink.com 1.10,2013-10-15 02:04:00,
2013-10-14 20:19:00,26.7,25.0,30.03,SSE,149,0.0,3.0,92,0.00,,,0.01,weatherlink.com 1.10,2013-10-15 02:19:00,
2013-10-14 20:34:00,26.7,25.0,30.04,SSE,164,0.0,1.0,92,0.00,,,0.01,weatherlink.com 1.10,2013-10-15 02:34:00,
2013-10-14 20:49:00,26.6,25.0,30.04,SSE,163,0.0,1.0,92,0.00,,,0.01,weatherlink.com 1.10,2013-10-15 02:49:00,
2013-10-14 21:04:00,26.5,25.0,30.05,SSE,162,0.0,1.0,92,0.00,,,0.01,weatherlink.com 1.10,2013-10-15 03:04:00,
2013-10-14 21:19:00,26.4,24.0,30.05,SSE,155,2.0,2.0,92,0.00,,,0.01,weatherlink.com 1.10,2013-10-15 03:19:00,
2013-10-14 21:34:00,26.4,24.0,30.07,SSE,156,0.0,1.0,91,0.00,,,0.01,weatherlink.com 1.10,2013-10-15 03:34:00,
2013-10-14 21:49:00,26.4,24.0,30.07,SE,142,0.0,2.0,91,0.00,,,0.01,weatherlink.com 1.10,2013-10-15 03:49:00,
2013-10-14 22:04:00,26.3,24.0,30.08,SE,141,0.0,2.0,91,0.00,,,0.01,weatherlink.com 1.10,2013-10-15 04:04:00,
2013-10-14 22:19:00,26.3,24.0,30.09,SSE,150,0.0,3.0,91,0.00,,,0.01,weatherlink.com 1.10,2013-10-15 04:19:00,
2013-10-14 22:34:00,26.3,24.0,30.09,SSE,159,0.0,0.0,91,0.00,,,0.01,weatherlink.com 1.10,2013-10-15 04:34:00,
2013-10-14 22:50:00,26.2,24.0,30.09,SSE,159,0.0,1.0,91,0.00,,,0.01,weatherlink.com 1.10,2013-10-15 04:50:00,
2013-10-14 23:05:00,26.1,24.0,30.10,SSE,159,0.0,1.0,91,0.00,,,0.01,weatherlink.com 1.10,2013-10-15 05:05:00,
2013-10-14 23:20:00,26.1,24.0,30.10,SSE,152,0.0,2.0,91,0.00,,,0.01,weatherlink.com 1.10,2013-10-15 05:20:00,
2013-10-14 23:35:00,26.1,24.0,30.10,SSE,150,0.0,1.0,91,0.00,,,0.01,weatherlink.com 1.10,2013-10-15 05:35:00,
2013-10-14 23:50:00,26.0,24.0,30.10,SSE,150,0.0,1.0,91,0.00,,,0.01,weatherlink.com 1.10,2013-10-15 05:50:00,